Have a Safe July 4th! 

Flight Track Log - Related Links

Times and Time Zones

All times are in EDT time to prevent confusion due to time zone crossing. See the N516QS flight status page for this flight to view local times or setup timezone preferences in your user account.

Time Position Orientation Groundspeed Altitude Reporting Facility
EDT Latitude Longitude Course Direction KTS MPH feet Rate Location/Type
Thu 06:10:00 AM 55.4235 -16.8860 288° West  Level Estimated
Thu 06:11:00 AM 55.4315 -17.0902 274° West  Level Estimated
Thu 06:12:00 AM 55.4393 -17.2944 274° West  Level Estimated
Thu 06:13:00 AM 55.4467 -17.4987 274° West  Level Estimated
Thu 06:14:00 AM 55.4538 -17.7031 274° West  Level Estimated
Thu 06:15:00 AM 55.4605 -17.9075 273° West  Level Estimated
Thu 06:16:00 AM 55.4669 -18.1120 273° West  Level Estimated
Thu 06:17:00 AM 55.4729 -18.3166 273° West  Level Estimated
Thu 06:18:00 AM 55.4786 -18.5212 273° West  Level Estimated
Thu 06:19:00 AM 55.4840 -18.7259 273° West  Level Estimated
Thu 06:20:00 AM 55.4890 -18.9307 273° West  Level Estimated
Thu 06:21:00 AM 55.4937 -19.1355 272° West  Level Estimated
Thu 06:22:00 AM 55.4980 -19.3403 272° West  Level Estimated
Thu 06:23:00 AM 55.5020 -19.5452 272° West  Level Estimated
Thu 06:24:00 AM 55.5057 -19.7502 272° West  Level Estimated
Thu 06:25:00 AM 55.5090 -19.9551 272° West  Level Estimated
Thu 06:26:00 AM 55.5120 -20.1601 272° West  Level Estimated
Thu 06:27:00 AM 55.5146 -20.3652 271° West  Level Estimated
Thu 06:28:00 AM 55.5169 -20.5702 271° West  Level Estimated
Thu 06:28:33 AM 57.0000 -20.0000 285° West 436 502 43,000  Level ETMS Enhanced Traffic Management System
Thu 06:29:00 AM 55.5188 -20.7753 271° West  Level Estimated
Thu 06:30:00 AM 55.5204 -20.9804 271° West  Level Estimated
Thu 06:31:00 AM 55.5217 -21.1855 271° West  Level Estimated
Thu 06:32:00 AM 55.5226 -21.3906 271° West  Level Estimated
Thu 06:33:00 AM 55.5232 -21.5958 270° West  Level Estimated
Thu 06:34:00 AM 57.2627 -21.9531 283° West 436 502 43,000  Level FlightAware Transoceanic
Thu 06:35:00 AM 57.2900 -22.1718 283° West 436 502 43,000  Level FlightAware Transoceanic
Thu 06:36:00 AM 57.3169 -22.3908 283° West 436 502 43,000  Level FlightAware Transoceanic
Thu 06:37:00 AM 57.3434 -22.6101 283° West 436 502 43,000  Level FlightAware Transoceanic
Thu 06:38:00 AM 57.3696 -22.8298 282° West 436 502 43,000  Level FlightAware Transoceanic
Thu 06:39:00 AM 57.3954 -23.0497 282° West 436 502 43,000  Level FlightAware Transoceanic
Thu 06:40:00 AM 57.4208 -23.2700 282° West 436 502 43,000  Level FlightAware Transoceanic
Thu 06:41:00 AM 57.4458 -23.4905 282° West 436 502 43,000  Level FlightAware Transoceanic
Thu 06:42:00 AM 57.4704 -23.7114 282° West 436 502 43,000  Level FlightAware Transoceanic
Thu 06:43:00 AM 57.4946 -23.9326 281° West 436 502 43,000  Level FlightAware Transoceanic
Thu 06:44:00 AM 57.5185 -24.1540 281° West 436 502 43,000  Level FlightAware Transoceanic
Thu 06:45:00 AM 57.5419 -24.3757 281° West 436 502 43,000  Level FlightAware Transoceanic
Thu 06:46:00 AM 57.5650 -24.5978 281° West 436 502 43,000  Level FlightAware Transoceanic
Thu 06:47:00 AM 57.5877 -24.8201 281° West 436 502 43,000  Level FlightAware Transoceanic
Thu 06:48:00 AM 57.6100 -25.0427 280° West 436 502 43,000  Level FlightAware Transoceanic
Thu 06:49:00 AM 57.6319 -25.2655 280° West 436 502 43,000  Level FlightAware Transoceanic
Thu 06:50:00 AM 57.6534 -25.4886 280° West 436 502 43,000  Level FlightAware Transoceanic
Thu 06:51:00 AM 57.6745 -25.7120 280° West 436 502 43,000  Level FlightAware Transoceanic
Thu 06:52:00 AM 57.6952 -25.9356 280° West 436 502 43,000  Level FlightAware Transoceanic
Thu 06:53:00 AM 57.7155 -26.1595 280° West 436 502 43,000  Level FlightAware Transoceanic
Thu 06:54:00 AM 57.7355 -26.3836 279° West 436 502 43,000  Level FlightAware Transoceanic
Thu 06:55:00 AM 57.7550 -26.6080 279° West 436 502 43,000  Level FlightAware Transoceanic
Thu 06:56:00 AM 57.7742 -26.8327 279° West 436 502 43,000  Level FlightAware Transoceanic
Thu 06:57:00 AM 57.7929 -27.0575 279° West 436 502 43,000  Level FlightAware Transoceanic
Thu 06:58:00 AM 57.8112 -27.2826 279° West 436 502 43,000  Level FlightAware Transoceanic
Thu 06:59:00 AM 57.8292 -27.5079 278° West 436 502 43,000  Level FlightAware Transoceanic
Thu 07:00:00 AM 57.8467 -27.7335 278° West 436 502 43,000  Level FlightAware Transoceanic
Thu 07:01:00 AM 57.8638 -27.9592 278° West 436 502 43,000  Level FlightAware Transoceanic
Thu 07:02:00 AM 57.8806 -28.1852 278° West 436 502 43,000  Level FlightAware Transoceanic
Thu 07:03:00 AM 57.8969 -28.4114 278° West 436 502 43,000  Level FlightAware Transoceanic
Thu 07:04:00 AM 57.9129 -28.6377 277° West 436 502 43,000  Level FlightAware Transoceanic
Thu 07:05:00 AM 57.9284 -28.8643 277° West 436 502 43,000  Level FlightAware Transoceanic
Thu 07:06:00 AM 57.9435 -29.0911 277° West 436 502 43,000  Level FlightAware Transoceanic
Thu 07:07:00 AM 57.9582 -29.3180 277° West 436 502 43,000  Level FlightAware Transoceanic
Thu 07:08:00 AM 57.9726 -29.5452 277° West 436 502 43,000  Level FlightAware Transoceanic
Thu 07:09:00 AM 57.9865 -29.7725 276° West 436 502 43,000  Level FlightAware Transoceanic
Thu 07:10:00 AM 57.9994 -29.9902 276° West  Level FlightAware Approximate
Thu 07:11:00 AM 58.0120 -30.2081 276° West  Level FlightAware Approximate
Thu 07:12:00 AM 58.0072 -30.1990 274° West  Level FlightAware Approximate
Thu 07:13:00 AM 58.0148 -30.4177 274° West  Level FlightAware Approximate
Thu 07:13:00 AM 58.0000 -30.0000 274° West 453 521 43,000  Level ETMS Enhanced Traffic Management System
Thu 07:14:00 AM 58.0220 -30.6366 274° West  Level FlightAware Approximate
Thu 07:15:00 AM 58.0288 -30.8555 273° West  Level FlightAware Approximate
Thu 07:16:00 AM 58.0352 -31.0745 273° West  Level FlightAware Approximate
Thu 07:17:00 AM 58.0413 -31.2935 273° West  Level FlightAware Approximate
Thu 07:18:00 AM 58.0470 -31.5127 273° West  Level FlightAware Approximate
Thu 07:19:00 AM 58.0660 -32.1393 272° West 453 521 43,000  Level FlightAware Transoceanic
Thu 07:20:00 AM 58.0711 -32.3775 272° West 453 521 43,000  Level FlightAware Transoceanic
Thu 07:21:00 AM 58.0758 -32.6157 272° West 453 521 43,000  Level FlightAware Transoceanic
Thu 07:22:00 AM 58.0801 -32.8539 272° West 453 521 43,000  Level FlightAware Transoceanic
Thu 07:23:00 AM 58.0838 -33.0923 272° West 453 521 43,000  Level FlightAware Transoceanic
Thu 07:24:00 AM 58.0872 -33.3306 271° West 453 521 43,000  Level FlightAware Transoceanic
Thu 07:25:00 AM 58.0901 -33.5690 271° West 453 521 43,000  Level FlightAware Transoceanic
Thu 07:26:00 AM 58.0925 -33.8075 271° West 453 521 43,000  Level FlightAware Transoceanic
Thu 07:27:00 AM 58.0945 -34.0459 271° West 453 521 43,000  Level FlightAware Transoceanic
Thu 07:28:00 AM 58.0961 -34.2844 271° West 453 521 43,000  Level FlightAware Transoceanic
Thu 07:29:00 AM 58.0972 -34.5229 270° West 453 521 43,000  Level FlightAware Transoceanic
Thu 07:30:00 AM 58.0979 -34.7615 270° West 453 521 43,000  Level FlightAware Transoceanic
Thu 07:31:00 AM 58.0981 -35.0000 270° West 453 521 43,000  Level FlightAware Transoceanic
Thu 07:32:00 AM 58.0979 -35.2385 270° West 453 521 43,000  Level FlightAware Transoceanic
Thu 07:33:00 AM 58.0972 -35.4771 270° West 453 521 43,000  Level FlightAware Transoceanic
Thu 07:34:00 AM 58.0961 -35.7156 269° West 453 521 43,000  Level FlightAware Transoceanic
Thu 07:35:00 AM 58.0945 -35.9541 269° West 453 521 43,000  Level FlightAware Transoceanic
Thu 07:36:00 AM 58.0925 -36.1925 269° West 453 521 43,000  Level FlightAware Transoceanic
Thu 07:37:00 AM 58.0901 -36.4310 269° West 453 521 43,000  Level FlightAware Transoceanic
Thu 07:38:00 AM 58.0872 -36.6694 269° West 453 521 43,000  Level FlightAware Transoceanic
Thu 07:39:00 AM 58.0838 -36.9077 268° West 453 521 43,000  Level FlightAware Transoceanic
Thu 07:40:00 AM 58.0801 -37.1461 268° West 453 521 43,000  Level FlightAware Transoceanic
Thu 07:41:00 AM 58.0758 -37.3843 268° West 453 521 43,000  Level FlightAware Transoceanic
Thu 07:42:00 AM 58.0711 -37.6225 268° West 453 521 43,000  Level FlightAware Transoceanic
Thu 07:43:00 AM 58.0660 -37.8607 268° West 453 521 43,000  Level FlightAware Transoceanic
Thu 07:44:00 AM 58.0605 -38.0987 267° West 453 521 43,000  Level FlightAware Transoceanic
Thu 07:45:00 AM 58.0545 -38.3367 267° West 453 521 43,000  Level FlightAware Transoceanic
Thu 07:46:00 AM 58.0480 -38.5746 267° West 453 521 43,000  Level FlightAware Transoceanic
Thu 07:47:00 AM 58.0411 -38.8125 267° West 453 521 43,000  Level FlightAware Transoceanic
Thu 07:48:00 AM 58.0338 -39.0502 267° West 453 521 43,000  Level FlightAware Transoceanic
Thu 07:49:00 AM 58.0260 -39.2878 266° West 453 521 43,000  Level FlightAware Transoceanic
Thu 07:50:00 AM 58.0178 -39.5253 266° West 453 521 43,000  Level FlightAware Transoceanic
Thu 07:51:00 AM 58.0091 -39.7627 266° West 453 521 43,000  Level FlightAware Transoceanic
Thu 07:52:00 AM 58.0007 -39.9813 266° West  Level FlightAware Approximate
Thu 07:53:00 AM 57.9920 -40.1998 266° West  Level FlightAware Approximate
Thu 07:54:00 AM 57.9735 -40.1745 254° West  Level FlightAware Approximate
Thu 07:55:00 AM 57.9412 -40.3848 254° West  Level FlightAware Approximate
Thu 07:55:00 AM 58.0000 -40.0000 254° West 434 499 43,000  Level ETMS Enhanced Traffic Management System
Thu 07:56:00 AM 57.9085 -40.5946 254° West  Level FlightAware Approximate
Thu 07:57:00 AM 57.8755 -40.8041 254° West  Level FlightAware Approximate
Thu 07:58:00 AM 57.8422 -41.0131 253° West  Level FlightAware Approximate
Thu 07:59:00 AM 57.8085 -41.2218 253° West  Level FlightAware Approximate
Thu 08:00:00 AM 57.7744 -41.4301 253° West  Level FlightAware Approximate
Thu 08:01:00 AM 57.6869 -41.9551 252° West 434 499 43,000  Level FlightAware Transoceanic
Thu 08:02:00 AM 57.6502 -42.1702 252° West 434 499 43,000  Level FlightAware Transoceanic
Thu 08:03:00 AM 57.6132 -42.3849 252° West 434 499 43,000  Level FlightAware Transoceanic
Thu 08:04:00 AM 57.5759 -42.5991 252° West 434 499 43,000  Level FlightAware Transoceanic
Thu 08:05:00 AM 57.5381 -42.8129 252° West 434 499 43,000  Level FlightAware Transoceanic
Thu 08:06:00 AM 57.5000 -43.0262 252° West 434 499 43,000  Level FlightAware Transoceanic
Thu 08:07:00 AM 57.4616 -43.2392 251° West 434 499 43,000  Level FlightAware Transoceanic
Thu 08:08:00 AM 57.4228 -43.4516 251° West 434 499 43,000  Level FlightAware Transoceanic
Thu 08:09:00 AM 57.3836 -43.6636 251° West 434 499 43,000  Level FlightAware Transoceanic
Thu 08:10:00 AM 57.3441 -43.8751 251° West 434 499 43,000  Level FlightAware Transoceanic
Thu 08:11:00 AM 57.3042 -44.0862 251° West 434 499 43,000  Level FlightAware Transoceanic
Thu 08:12:00 AM 57.2640 -44.2969 250° West 434 499 43,000  Level FlightAware Transoceanic
Thu 08:13:00 AM 57.2234 -44.5070 250° West 434 499 43,000  Level FlightAware Transoceanic
Thu 08:14:00 AM 57.1825 -44.7167 250° West 434 499 43,000  Level FlightAware Transoceanic
Thu 08:15:00 AM 57.1413 -44.9260 250° West 434 499 43,000  Level FlightAware Transoceanic
Thu 08:16:00 AM 57.0996 -45.1347 250° West 434 499 43,000  Level FlightAware Transoceanic
Thu 08:17:00 AM 57.0577 -45.3430 250° West 434 499 43,000  Level FlightAware Transoceanic
Thu 08:18:00 AM 57.0154 -45.5509 249° West 434 499 43,000  Level FlightAware Transoceanic
Thu 08:19:00 AM 56.9727 -45.7582 249° West 434 499 43,000  Level FlightAware Transoceanic
Thu 08:20:00 AM 56.9297 -45.9651 249° West 434 499 43,000  Level FlightAware Transoceanic
Thu 08:21:00 AM 56.8864 -46.1715 249° West 434 499 43,000  Level FlightAware Transoceanic
Thu 08:22:00 AM 56.8427 -46.3774 249° West 434 499 43,000  Level FlightAware Transoceanic
Thu 08:23:00 AM 56.7987 -46.5828 249° West 434 499 43,000  Level FlightAware Transoceanic
Thu 08:24:00 AM 56.7543 -46.7878 248° West 434 499 43,000  Level FlightAware Transoceanic
Thu 08:25:00 AM 56.7096 -46.9922 248° West 434 499 43,000  Level FlightAware Transoceanic
Thu 08:26:00 AM 56.6646 -47.1962 248° West 434 499 43,000  Level FlightAware Transoceanic
Thu 08:27:00 AM 56.6193 -47.3997 248° West 434 499 43,000  Level FlightAware Transoceanic
Thu 08:28:00 AM 56.5736 -47.6027 248° West 434 499 43,000  Level FlightAware Transoceanic
Thu 08:29:00 AM 56.5275 -47.8052 248° West 434 499 43,000  Level FlightAware Transoceanic
Thu 08:30:00 AM 56.4812 -48.0073 247° West 434 499 43,000  Level FlightAware Transoceanic
Thu 08:31:00 AM 56.4345 -48.2088 247° West 434 499 43,000  Level FlightAware Transoceanic
Thu 08:32:00 AM 56.3875 -48.4098 247° West 434 499 43,000  Level FlightAware Transoceanic
Thu 08:33:00 AM 56.3402 -48.6103 247° West 434 499 43,000  Level FlightAware Transoceanic
Thu 08:34:00 AM 56.2926 -48.8104 247° West 434 499 43,000  Level FlightAware Transoceanic
Thu 08:35:00 AM 56.2446 -49.0099 247° West 434 499 43,000  Level FlightAware Transoceanic
Thu 08:36:00 AM 56.1963 -49.2089 246° West 434 499 43,000  Level FlightAware Transoceanic
Thu 08:37:00 AM 56.1477 -49.4074 246° West 434 499 43,000  Level FlightAware Transoceanic
Thu 08:38:00 AM 56.0988 -49.6055 246° West 434 499 43,000  Level FlightAware Transoceanic
Thu 08:39:00 AM 56.0495 -49.8030 246° West 434 499 43,000  Level FlightAware Transoceanic
Thu 08:40:00 AM 56.0019 -49.9925 246° West  Level FlightAware Approximate
Thu 08:41:00 AM 55.9539 -50.1815 246° West  Level FlightAware Approximate
Thu 08:41:33 AM 56.0000 -50.0000 250° West 448 516 43,000  Level ETMS Enhanced Traffic Management System
Thu 08:42:00 AM 55.9632 -50.1794 250° West  Level FlightAware Approximate
Thu 08:43:00 AM 55.9229 -50.3738 250° West  Level FlightAware Approximate
Thu 08:44:00 AM 55.8823 -50.5679 250° West  Level FlightAware Approximate
Thu 08:45:00 AM 55.8414 -50.7616 249° West  Level FlightAware Approximate
Thu 08:46:00 AM 55.8002 -50.9548 249° West  Level FlightAware Approximate
Thu 08:47:00 AM 55.6467 -51.6590 249° West 448 516 43,000  Level FlightAware Transoceanic
Thu 08:48:00 AM 55.6010 -51.8643 248° West 448 516 43,000  Level FlightAware Transoceanic
Thu 08:49:00 AM 55.5549 -52.0691 248° West 448 516 43,000  Level FlightAware Transoceanic
Thu 08:50:00 AM 55.5085 -52.2733 248° West 448 516 43,000  Level FlightAware Transoceanic
Thu 08:51:00 AM 55.4618 -52.4771 248° West 448 516 43,000  Level FlightAware Transoceanic
Thu 08:52:00 AM 55.4147 -52.6805 248° West 448 516 43,000  Level FlightAware Transoceanic
Thu 08:53:00 AM 55.3673 -52.8833 248° West 448 516 43,000  Level FlightAware Transoceanic
Thu 08:54:00 AM 55.3195 -53.0857 247° West 448 516 43,000  Level FlightAware Transoceanic
Thu 08:55:00 AM 55.2715 -53.2875 247° West 448 516 43,000  Level FlightAware Transoceanic
Thu 08:56:00 AM 55.2230 -53.4889 247° West 448 516 43,000  Level FlightAware Transoceanic
Thu 08:57:00 AM 55.1743 -53.6898 247° West 448 516 43,000  Level FlightAware Transoceanic
Thu 08:58:00 AM 55.1252 -53.8901 247° West 448 516 43,000  Level FlightAware Transoceanic
Thu 08:59:00 AM 55.0758 -54.0900 247° West 448 516 43,000  Level FlightAware Transoceanic
Thu 09:00:00 AM 55.0261 -54.2894 246° West 448 516 43,000  Level FlightAware Transoceanic
Thu 09:01:00 AM 54.9760 -54.4883 246° West 448 516 43,000  Level FlightAware Transoceanic
Thu 09:02:00 AM 54.9257 -54.6867 246° West 448 516 43,000  Level FlightAware Transoceanic
Thu 09:03:00 AM 54.8750 -54.8846 246° West 448 516 43,000  Level FlightAware Transoceanic
Thu 09:04:00 AM 54.8239 -55.0820 246° West 448 516 43,000  Level FlightAware Transoceanic
Thu 09:04:23 AM 54.8667 -54.8667 226° Southwest 460 529 43,000  Level Moncton Center
Thu 09:05:00 AM 54.7726 -55.2789 246° West 448 516 43,000  Level FlightAware Transoceanic
Thu 09:05:23 AM 54.8000 -55.0833 242° Southwest 460 529 43,000  Level Moncton Center
Thu 09:06:00 AM 54.7209 -55.4754 245° Southwest 448 516 43,000  Level FlightAware Transoceanic
Thu 09:06:23 AM 54.7667 -55.2667 253° West 460 529 43,000  Level Moncton Center
Thu 09:07:00 AM 54.6690 -55.6713 245° Southwest 448 516 43,000  Level FlightAware Transoceanic
Thu 09:07:23 AM 54.7167 -55.4833 248° West 460 529 43,000  Level Moncton Center
Thu 09:08:00 AM 54.5860 -55.8192 226° Southwest  Level Estimated
Thu 09:08:23 AM 54.6333 -55.6667 232° Southwest 460 529 43,000  Level Moncton Center
Thu 09:09:00 AM 54.5029 -55.9665 226° Southwest  Level Estimated
Thu 09:09:23 AM 54.5500 -55.8333 229° Southwest 460 529 43,000  Level Moncton Center
Thu 09:10:00 AM 54.4196 -56.1132 226° Southwest  Level Estimated
Thu 09:10:23 AM 54.4667 -56.0000 229° Southwest 460 529 43,000  Level Moncton Center
Thu 09:11:23 AM 54.3667 -56.1333 218° Southwest 470 541 43,000  Level Moncton Center
Thu 09:12:23 AM 54.2833 -56.2833 226° Southwest 460 529 43,000  Level Moncton Center
Thu 09:13:23 AM 54.1833 -56.4500 224° Southwest 460 529 43,000  Level Moncton Center
Thu 09:14:23 AM 54.1000 -56.6167 230° Southwest 460 529 43,000  Level Moncton Center
Thu 09:15:23 AM 54.0000 -56.7667 221° Southwest 460 529 43,000  Level Moncton Center
Thu 09:16:23 AM 53.9167 -56.9333 230° Southwest 460 529 43,000  Level Moncton Center
Thu 09:17:23 AM 53.8333 -57.0833 227° Southwest 460 529 43,000  Level Moncton Center
Thu 09:18:23 AM 53.7333 -57.2500 225° Southwest 460 529 43,000  Level Moncton Center
Thu 09:19:23 AM 53.6333 -57.3667 215° Southwest 460 529 43,000  Level Moncton Center
Thu 09:20:23 AM 53.5667 -57.5167 233° Southwest 460 529 43,000  Level Moncton Center
Thu 09:21:23 AM 53.4500 -57.6833 220° Southwest 460 529 43,000  Level Moncton Center
Thu 09:22:23 AM 53.3833 -57.8333 233° Southwest 460 529 43,000  Level Moncton Center
Thu 09:23:23 AM 53.2833 -57.9833 222° Southwest 460 529 43,000  Level Moncton Center
Thu 09:24:23 AM 53.2000 -58.1333 227° Southwest 460 529 43,000  Level Moncton Center
Thu 09:25:23 AM 53.1000 -58.2667 219° Southwest 460 529 43,000  Level Moncton Center
Thu 09:26:23 AM 53.0167 -58.4167 227° Southwest 460 529 43,000  Level Moncton Center
Thu 09:27:23 AM 52.9167 -58.5667 222° Southwest 460 529 43,000  Level Moncton Center
Thu 09:28:23 AM 52.8167 -58.7167 222° Southwest 460 529 43,000  Level Moncton Center
Thu 09:29:23 AM 52.7333 -58.8667 227° Southwest 460 529 43,000  Level Moncton Center
Thu 09:30:23 AM 52.6333 -59.0167 222° Southwest 460 529 43,000  Level Moncton Center
Thu 09:31:23 AM 52.5333 -59.1667 222° Southwest 460 529 43,000  Level Moncton Center
Thu 09:32:23 AM 52.4667 -59.2833 227° Southwest 460 529 43,000  Level Moncton Center
Thu 09:33:23 AM 52.3667 -59.4333 223° Southwest 450 518 43,000  Level Moncton Center
Thu 09:34:23 AM 52.2667 -59.5833 223° Southwest 460 529 43,000  Level Moncton Center
Thu 09:35:23 AM 52.1833 -59.7333 228° Southwest 460 529 43,000  Level Moncton Center
Thu 09:36:23 AM 52.0833 -59.8833 223° Southwest 460 529 43,000  Level Moncton Center
Thu 09:37:23 AM 51.9833 -60.0167 219° Southwest 460 529 43,000  Level Moncton Center
Thu 09:38:23 AM 51.9000 -60.1667 228° Southwest 460 529 43,000  Level Moncton Center
Thu 09:39:23 AM 51.8000 -60.2833 216° Southwest 460 529 43,000  Level Moncton Center
Thu 09:40:23 AM 51.7000 -60.4333 223° Southwest 460 529 43,000  Level Moncton Center
Thu 09:41:23 AM 51.6000 -60.5667 220° Southwest 460 529 43,000  Level Moncton Center
Thu 09:42:23 AM 51.5167 -60.7167 228° Southwest 460 529 43,000  Level Moncton Center
Thu 09:43:23 AM 51.4333 -60.8500 225° Southwest 460 529 43,000  Level Moncton Center
Thu 09:44:23 AM 51.3167 -61.0000 219° Southwest 460 529 43,000  Level Moncton Center
Thu 09:45:23 AM 51.2333 -61.1333 225° Southwest 460 529 43,000  Level Moncton Center
Thu 09:46:23 AM 51.1333 -61.2833 223° Southwest 460 529 43,000  Level Moncton Center
Thu 09:47:23 AM 51.0500 -61.3833 217° Southwest 460 529 43,000  Level Moncton Center
Thu 09:48:23 AM 50.9500 -61.5333 223° Southwest 450 518 43,000  Level Moncton Center
Thu 09:49:23 AM 50.8500 -61.6667 220° Southwest 460 529 43,000  Level Moncton Center
Thu 09:50:23 AM 50.7667 -61.8000 225° Southwest 450 518 43,000  Level Moncton Center
Thu 09:51:23 AM 50.6500 -61.9333 216° Southwest 450 518 43,000  Level Moncton Center
Thu 09:52:23 AM 50.5667 -62.0500 222° Southwest 440 506 43,000  Level Moncton Center
Thu 09:53:23 AM 50.4667 -62.1833 220° Southwest 450 518 43,000  Level Moncton Center
Thu 09:54:23 AM 50.3833 -62.3167 226° Southwest 450 518 43,000  Level Moncton Center
Thu 09:55:23 AM 50.3000 -62.4333 222° Southwest 450 518 43,000  Level Moncton Center
Thu 09:56:23 AM 50.2000 -62.5667 221° Southwest 450 518 43,000  Level Moncton Center
Thu 09:57:23 AM 50.1000 -62.7000 221° Southwest 460 529 43,000  Level Moncton Center
Thu 09:58:23 AM 50.0000 -62.8333 221° Southwest 450 518 43,000  Level Moncton Center
Thu 09:59:23 AM 49.9167 -62.9333 218° Southwest 450 518 43,000  Level Moncton Center
Thu 10:00:23 AM 49.8167 -63.0667 221° Southwest 450 518 43,000  Level Moncton Center
Thu 10:01:23 AM 49.7167 -63.2000 221° Southwest 450 518 43,000  Level Moncton Center
Thu 10:02:23 AM 49.6167 -63.3333 221° Southwest 440 506 43,000  Level Moncton Center
Thu 10:03:23 AM 49.5167 -63.4667 221° Southwest 460 529 43,000  Level Moncton Center
Thu 10:04:23 AM 49.4167 -63.5667 213° Southwest 450 518 43,000  Level Moncton Center
Thu 10:05:23 AM 49.3167 -63.7000 221° Southwest 450 518 43,000  Level Moncton Center
Thu 10:06:23 AM 49.2333 -63.8333 226° Southwest 450 518 43,000  Level Moncton Center
Thu 10:07:23 AM 49.1333 -63.9667 221° Southwest 450 518 43,000  Level Moncton Center
Thu 10:08:23 AM 49.0333 -64.0833 217° Southwest 450 518 43,000  Level Moncton Center
Thu 10:09:23 AM 48.9500 -64.2000 223° Southwest 440 506 43,000  Level Moncton Center
Thu 10:10:23 AM 48.8500 -64.3167 218° Southwest 440 506 43,000  Level Moncton Center
Thu 10:11:23 AM 48.7500 -64.4167 213° Southwest 450 518 43,000  Level Moncton Center
Thu 10:12:23 AM 48.6500 -64.5500 221° Southwest 450 518 43,000  Level Moncton Center
Thu 10:13:23 AM 48.5667 -64.6833 227° Southwest 440 506 43,000  Level Moncton Center
Thu 10:14:23 AM 48.4667 -64.8000 218° Southwest 430 495 43,000  Level Moncton Center
Thu 10:15:23 AM 48.3667 -64.9000 214° Southwest 430 495 43,000  Level Moncton Center
Thu 10:16:23 AM 48.2833 -65.0333 227° Southwest 440 506 43,000  Level Moncton Center
Thu 10:17:23 AM 48.1833 -65.1333 214° Southwest 440 506 43,000  Level Moncton Center
Thu 10:18:23 AM 48.0833 -65.2500 218° Southwest 440 506 43,000  Level Moncton Center
Thu 10:19:23 AM 47.9833 -65.3667 218° Southwest 450 518 43,000  Level Moncton Center
Thu 10:20:23 AM 47.9000 -65.4667 219° Southwest 440 506 43,000  Level Moncton Center
Thu 10:21:23 AM 47.8000 -65.6000 222° Southwest 440 506 43,000  Level Moncton Center
Thu 10:22:23 AM 47.7167 -65.7167 223° Southwest 450 518 43,000  Level Moncton Center
Thu 10:23:23 AM 47.6000 -65.8333 214° Southwest 450 518 43,000  Level Moncton Center
Thu 10:24:23 AM 47.5000 -65.9333 214° Southwest 440 506 43,000  Level Moncton Center
Thu 10:25:23 AM 47.4000 -66.0500 218° Southwest 440 506 43,000  Level Moncton Center
Thu 10:26:23 AM 47.3167 -66.1833 227° Southwest 440 506 43,000  Level Moncton Center
Thu 10:27:23 AM 47.2167 -66.3000 218° Southwest 440 506 43,000  Level Moncton Center
Thu 10:28:23 AM 47.1167 -66.3833 210° Southwest 430 495 43,000  Level Moncton Center
Thu 10:29:23 AM 47.0167 -66.5167 222° Southwest 430 495 43,000  Level Moncton Center
Thu 10:30:23 AM 46.9333 -66.6000 214° Southwest 430 495 43,000  Level Moncton Center
Thu 10:31:23 AM 46.8333 -66.7167 219° Southwest 430 495 43,000  Level Moncton Center
Thu 10:32:23 AM 46.7333 -66.8167 214° Southwest 430 495 43,000 -600 Level Moncton Center
Thu 10:33:23 AM 46.6500 -66.9333 224° Southwest 430 495 41,800 -1,650 Descending Moncton Center
Thu 10:34:23 AM 46.5500 -67.0500 219° Southwest 450 518 39,700 -2,000 Descending Moncton Center
Thu 10:35:23 AM 46.4500 -67.1500 215° Southwest 450 518 37,800 -2,000 Descending Moncton Center
Thu 10:36:23 AM 46.3333 -67.2500 211° Southwest 440 506 35,700 -2,050 Descending Moncton Center
Thu 10:37:23 AM 46.2500 -67.3667 224° Southwest 430 495 33,700 -2,050 Descending Moncton Center
Thu 10:38:23 AM 46.1500 -67.4667 215° Southwest 430 495 31,600 -2,000 Descending Moncton Center
Thu 10:39:23 AM 46.0667 -67.5833 224° Southwest 440 506 29,700 -1,300 Descending Moncton Center
Thu 10:40:23 AM 45.9667 -67.7000 219° Southwest 440 506 29,000 -350 Descending Moncton Center
Thu 10:41:23 AM 45.8500 -67.7833 206° Southwest 440 506 29,000 -850 Level Moncton Center
Thu 10:42:23 AM 45.7500 -67.9000 219° Southwest 430 495 27,300 -1,750 Descending Moncton Center
Thu 10:43:23 AM 45.6667 -68.0167 224° Southwest 440 506 25,500 -2,150 Descending Moncton Center
Thu 10:44:23 AM 45.5833 -68.1000 215° Southwest 420 483 23,000 -2,500 Descending Moncton Center
Thu 10:45:23 AM 45.4833 -68.1833 210° Southwest 410 472 20,500 -2,350 Descending Moncton Center
Thu 10:46:23 AM 45.4000 -68.2833 220° Southwest 390 449 18,300 -2,250 Descending Moncton Center
Thu 10:47:23 AM 45.3167 -68.3667 215° Southwest 380 437 16,000 -2,200 Descending Moncton Center
Thu 10:48:23 AM 45.2333 -68.4667 220° Southwest 360 414 13,900 -2,000 Descending Moncton Center
Thu 10:49:23 AM 45.1833 -68.5500 230° Southwest 320 368 12,000 -1,850 Descending Moncton Center
Thu 10:50:23 AM 45.1667 -68.6500 257° West 290 334 10,200 -1,650 Descending Moncton Center
Thu 10:51:23 AM 45.1333 -68.7333 240° Southwest 270 311 8,700 -1,849 Descending Moncton Center
Thu 10:52:49 AM 45.0778 -68.8242 229° Southwest 253 291 5,700 -2,122 Descending Boston Center
Thu 10:53:50 AM 45.0275 -68.8833 220° Southwest 248 285 3,500 -1,525 Descending Boston Center
Thu 10:54:51 AM 44.9875 -68.9356 223° Southwest 231 266 2,600 -504 Descending Boston Center
Thu 10:55:49 AM 44.9594 -68.9783 227° Southwest 189 217 2,500 -51 Descending Boston Center
Thu 10:56:49 AM 44.9217 -68.9689 170° South 130 150 2,500 -50 Level Boston Center
Thu 10:57:49 AM 44.8856 -68.9417 152° Southeast 130 150 2,400 -595 Descending Boston Center
Thu 10:58:50 AM 44.8572 -68.9053 138° Southeast 136 157 1,300 -787 Descending Boston Center
Thu 10:59:51 AM 44.8375 -68.8742 132° Southeast 130 150 800 -504 Descending Boston Center
Thu 11:00:49 AM 44.8094 -68.8408 140° Southeast 118 136 300 -517 Descending Boston Center
Thu 11:02:00 AM 44.8074 -68.8281 133° Southeast  Level Estimated
Thu 11:09:00 AM 44.8074 -68.8281 133° Southeast  Level Estimated

Login

Don't have an account? Register now (free) for customized features, flight alerts, and more!